Terminal Aerodrome Forecast
Issued by NWS

Home | Current Version | Previous Version | Text Only | Print | Product List | Glossary On
Versions: 1 2 3 4 5 6 7 8 9 10 11 12 13 14 15 16
960
FTUS46 KSGX 221135
TAFSNA
TAF
KSNA 221135Z 2212/2312 11009KT 6SM -SHRA SCT025 BKN045 OVC060
     FM221800 16015G30KT 4SM -SHRA BR SCT010 BKN020 OVC050
      TEMPO 2222/2302 20020G40KT 1SM +SHRA BR SCT005 BKN012
     FM230400 24015G30KT 4SM -SHRA BR BKN025 OVC050=

USA.gov is the U.S. government's official web portal to all federal, state and local government web resources and services.